sensor_id;sensor_type;location;lat;lon;timestamp;P1;durP1;ratioP1;P2;durP2;ratioP2
32038;SDS011;18549;42.286;22.688;2024-01-07T00:00:04;112.00;;;60.07;;
32038;SDS011;18549;42.286;22.688;2024-01-07T00:02:33;106.73;;;61.73;;
32038;SDS011;18549;42.286;22.688;2024-01-07T00:05:04;104.83;;;59.53;;
32038;SDS011;18549;42.286;22.688;2024-01-07T00:07:33;99.60;;;56.50;;
32038;SDS011;18549;42.286;22.688;2024-01-07T00:10:00;105.87;;;58.03;;
32038;SDS011;18549;42.286;22.688;2024-01-07T00:12:28;97.27;;;56.20;;
32038;SDS011;18549;42.286;22.688;2024-01-07T00:14:55;95.33;;;54.27;;
32038;SDS011;18549;42.286;22.688;2024-01-07T00:17:22;89.97;;;51.23;;
32038;SDS011;18549;42.286;22.688;2024-01-07T00:19:49;76.13;;;44.50;;
32038;SDS011;18549;42.286;22.688;2024-01-07T00:22:17;66.50;;;40.17;;
32038;SDS011;18549;42.286;22.688;2024-01-07T00:24:45;72.17;;;41.47;;
32038;SDS011;18549;42.286;22.688;2024-01-07T00:27:13;74.00;;;39.30;;
32038;SDS011;18549;42.286;22.688;2024-01-07T00:29:40;74.90;;;41.10;;
32038;SDS011;18549;42.286;22.688;2024-01-07T00:32:07;68.80;;;34.60;;
32038;SDS011;18549;42.286;22.688;2024-01-07T00:34:33;60.30;;;32.70;;
32038;SDS011;18549;42.286;22.688;2024-01-07T00:37:00;71.47;;;38.47;;
32038;SDS011;18549;42.286;22.688;2024-01-07T00:39:27;58.73;;;32.80;;
32038;SDS011;18549;42.286;22.688;2024-01-07T00:41:56;75.90;;;43.13;;
32038;SDS011;18549;42.286;22.688;2024-01-07T00:44:23;65.37;;;39.97;;
32038;SDS011;18549;42.286;22.688;2024-01-07T00:46:50;86.80;;;45.97;;
32038;SDS011;18549;42.286;22.688;2024-01-07T00:49:16;81.83;;;42.80;;
32038;SDS011;18549;42.286;22.688;2024-01-07T00:51:45;69.10;;;38.70;;
32038;SDS011;18549;42.286;22.688;2024-01-07T00:54:12;70.93;;;38.37;;
32038;SDS011;18549;42.286;22.688;2024-01-07T00:56:39;61.10;;;33.50;;
32038;SDS011;18549;42.286;22.688;2024-01-07T00:59:08;43.13;;;27.47;;
32038;SDS011;18549;42.286;22.688;2024-01-07T01:01:37;52.83;;;27.73;;
32038;SDS011;18549;42.286;22.688;2024-01-07T01:04:04;55.20;;;32.00;;
32038;SDS011;18549;42.286;22.688;2024-01-07T01:06:30;61.07;;;32.70;;
32038;SDS011;18549;42.286;22.688;2024-01-07T01:08:57;54.83;;;30.47;;
32038;SDS011;18549;42.286;22.688;2024-01-07T01:11:25;45.57;;;27.43;;
32038;SDS011;18549;42.286;22.688;2024-01-07T01:13:52;47.30;;;28.80;;
32038;SDS011;18549;42.286;22.688;2024-01-07T01:16:20;56.27;;;29.07;;
32038;SDS011;18549;42.286;22.688;2024-01-07T01:18:49;42.57;;;26.17;;
32038;SDS011;18549;42.286;22.688;2024-01-07T01:21:16;43.00;;;24.83;;
32038;SDS011;18549;42.286;22.688;2024-01-07T01:23:46;60.37;;;33.57;;
32038;SDS011;18549;42.286;22.688;2024-01-07T01:26:14;52.63;;;31.77;;
32038;SDS011;18549;42.286;22.688;2024-01-07T01:28:41;54.27;;;30.13;;
32038;SDS011;18549;42.286;22.688;2024-01-07T01:31:12;44.97;;;27.63;;
32038;SDS011;18549;42.286;22.688;2024-01-07T01:33:44;53.50;;;31.13;;
32038;SDS011;18549;42.286;22.688;2024-01-07T01:36:10;55.10;;;32.33;;
32038;SDS011;18549;42.286;22.688;2024-01-07T01:38:39;45.30;;;30.93;;
32038;SDS011;18549;42.286;22.688;2024-01-07T01:41:06;52.90;;;29.87;;
32038;SDS011;18549;42.286;22.688;2024-01-07T01:43:35;46.33;;;28.97;;
32038;SDS011;18549;42.286;22.688;2024-01-07T01:46:02;78.10;;;38.93;;
32038;SDS011;18549;42.286;22.688;2024-01-07T01:48:29;64.47;;;42.23;;
32038;SDS011;18549;42.286;22.688;2024-01-07T01:50:59;50.30;;;32.97;;
32038;SDS011;18549;42.286;22.688;2024-01-07T01:53:27;69.13;;;39.37;;
32038;SDS011;18549;42.286;22.688;2024-01-07T01:55:55;52.53;;;32.37;;
32038;SDS011;18549;42.286;22.688;2024-01-07T01:58:24;34.30;;;19.23;;
32038;SDS011;18549;42.286;22.688;2024-01-07T02:00:56;47.43;;;23.33;;
32038;SDS011;18549;42.286;22.688;2024-01-07T02:03:23;33.17;;;22.70;;
32038;SDS011;18549;42.286;22.688;2024-01-07T02:05:53;42.53;;;26.10;;
32038;SDS011;18549;42.286;22.688;2024-01-07T02:08:28;48.10;;;27.13;;
32038;SDS011;18549;42.286;22.688;2024-01-07T02:10:57;37.60;;;23.73;;
32038;SDS011;18549;42.286;22.688;2024-01-07T02:13:25;18.03;;;8.87;;
32038;SDS011;18549;42.286;22.688;2024-01-07T02:15:54;9.87;;;5.33;;
32038;SDS011;18549;42.286;22.688;2024-01-07T02:18:25;6.93;;;3.17;;
32038;SDS011;18549;42.286;22.688;2024-01-07T02:20:52;3.40;;;2.63;;
32038;SDS011;18549;42.286;22.688;2024-01-07T02:23:20;5.67;;;3.13;;
32038;SDS011;18549;42.286;22.688;2024-01-07T02:25:50;3.13;;;1.63;;
32038;SDS011;18549;42.286;22.688;2024-01-07T02:28:17;1.80;;;1.43;;
32038;SDS011;18549;42.286;22.688;2024-01-07T02:31:02;7.37;;;1.70;;
32038;SDS011;18549;42.286;22.688;2024-01-07T02:33:33;2.13;;;1.33;;
32038;SDS011;18549;42.286;22.688;2024-01-07T02:36:02;1.87;;;1.00;;
32038;SDS011;18549;42.286;22.688;2024-01-07T02:38:29;2.53;;;1.40;;
32038;SDS011;18549;42.286;22.688;2024-01-07T02:41:00;11.07;;;1.60;;
32038;SDS011;18549;42.286;22.688;2024-01-07T02:43:27;3.07;;;1.30;;
32038;SDS011;18549;42.286;22.688;2024-01-07T02:45:55;3.37;;;1.30;;
32038;SDS011;18549;42.286;22.688;2024-01-07T02:48:22;5.50;;;2.03;;
32038;SDS011;18549;42.286;22.688;2024-01-07T02:50:50;4.20;;;2.10;;
32038;SDS011;18549;42.286;22.688;2024-01-07T02:53:20;9.70;;;5.40;;
32038;SDS011;18549;42.286;22.688;2024-01-07T02:55:48;6.50;;;3.00;;
32038;SDS011;18549;42.286;22.688;2024-01-07T02:58:17;2.27;;;1.60;;
32038;SDS011;18549;42.286;22.688;2024-01-07T03:00:45;1.70;;;1.57;;
32038;SDS011;18549;42.286;22.688;2024-01-07T03:03:14;1.30;;;1.20;;
32038;SDS011;18549;42.286;22.688;2024-01-07T03:05:41;1.00;;;0.90;;
32038;SDS011;18549;42.286;22.688;2024-01-07T03:08:08;1.30;;;1.20;;
32038;SDS011;18549;42.286;22.688;2024-01-07T03:10:36;5.87;;;1.47;;
32038;SDS011;18549;42.286;22.688;2024-01-07T03:13:20;2.07;;;1.13;;
32038;SDS011;18549;42.286;22.688;2024-01-07T03:15:47;3.97;;;1.40;;
32038;SDS011;18549;42.286;22.688;2024-01-07T03:18:14;3.33;;;1.50;;
32038;SDS011;18549;42.286;22.688;2024-01-07T03:20:41;1.87;;;1.30;;
32038;SDS011;18549;42.286;22.688;2024-01-07T03:23:09;3.83;;;1.63;;
32038;SDS011;18549;42.286;22.688;2024-01-07T03:25:37;2.80;;;2.03;;
32038;SDS011;18549;42.286;22.688;2024-01-07T03:28:05;4.73;;;1.53;;
32038;SDS011;18549;42.286;22.688;2024-01-07T03:30:41;5.43;;;2.00;;
32038;SDS011;18549;42.286;22.688;2024-01-07T03:33:11;7.63;;;2.43;;
32038;SDS011;18549;42.286;22.688;2024-01-07T03:35:54;7.73;;;3.57;;
32038;SDS011;18549;42.286;22.688;2024-01-07T03:38:24;4.73;;;3.30;;
32038;SDS011;18549;42.286;22.688;2024-01-07T03:40:51;6.83;;;3.70;;
32038;SDS011;18549;42.286;22.688;2024-01-07T03:43:21;7.17;;;3.93;;
32038;SDS011;18549;42.286;22.688;2024-01-07T03:46:15;5.90;;;4.47;;
32038;SDS011;18549;42.286;22.688;2024-01-07T03:48:42;10.03;;;5.50;;
32038;SDS011;18549;42.286;22.688;2024-01-07T03:51:17;8.50;;;4.93;;
32038;SDS011;18549;42.286;22.688;2024-01-07T03:53:44;16.90;;;5.83;;
32038;SDS011;18549;42.286;22.688;2024-01-07T03:56:13;9.70;;;6.60;;
32038;SDS011;18549;42.286;22.688;2024-01-07T03:58:43;7.37;;;5.23;;
32038;SDS011;18549;42.286;22.688;2024-01-07T04:01:16;11.13;;;5.07;;
32038;SDS011;18549;42.286;22.688;2024-01-07T04:03:45;13.50;;;4.87;;
32038;SDS011;18549;42.286;22.688;2024-01-07T04:06:14;8.17;;;4.23;;
32038;SDS011;18549;42.286;22.688;2024-01-07T04:08:41;8.27;;;4.40;;
32038;SDS011;18549;42.286;22.688;2024-01-07T04:11:12;6.80;;;3.67;;
32038;SDS011;18549;42.286;22.688;2024-01-07T04:13:41;5.77;;;3.43;;
32038;SDS011;18549;42.286;22.688;2024-01-07T04:16:25;5.00;;;2.97;;
32038;SDS011;18549;42.286;22.688;2024-01-07T04:18:54;8.53;;;3.53;;
32038;SDS011;18549;42.286;22.688;2024-01-07T04:21:23;4.23;;;2.43;;
32038;SDS011;18549;42.286;22.688;2024-01-07T04:24:05;8.57;;;4.00;;
32038;SDS011;18549;42.286;22.688;2024-01-07T04:26:32;4.43;;;2.47;;
32038;SDS011;18549;42.286;22.688;2024-01-07T04:29:00;7.00;;;3.97;;
32038;SDS011;18549;42.286;22.688;2024-01-07T04:31:30;15.57;;;8.27;;
32038;SDS011;18549;42.286;22.688;2024-01-07T04:34:01;12.47;;;4.73;;
32038;SDS011;18549;42.286;22.688;2024-01-07T04:36:30;9.70;;;4.87;;
32038;SDS011;18549;42.286;22.688;2024-01-07T04:38:57;5.73;;;3.97;;
32038;SDS011;18549;42.286;22.688;2024-01-07T04:41:24;6.17;;;3.93;;
32038;SDS011;18549;42.286;22.688;2024-01-07T04:43:52;8.17;;;4.77;;
32038;SDS011;18549;42.286;22.688;2024-01-07T04:46:18;5.30;;;3.60;;
32038;SDS011;18549;42.286;22.688;2024-01-07T04:48:49;5.33;;;3.80;;
32038;SDS011;18549;42.286;22.688;2024-01-07T04:51:20;6.73;;;3.97;;
32038;SDS011;18549;42.286;22.688;2024-01-07T04:53:50;6.33;;;4.07;;
32038;SDS011;18549;42.286;22.688;2024-01-07T04:56:19;11.53;;;5.73;;
32038;SDS011;18549;42.286;22.688;2024-01-07T04:58:49;15.67;;;7.80;;
32038;SDS011;18549;42.286;22.688;2024-01-07T05:01:19;11.07;;;6.50;;
32038;SDS011;18549;42.286;22.688;2024-01-07T05:04:01;9.80;;;6.93;;
32038;SDS011;18549;42.286;22.688;2024-01-07T05:06:29;11.23;;;5.80;;
32038;SDS011;18549;42.286;22.688;2024-01-07T05:08:56;13.70;;;7.20;;
32038;SDS011;18549;42.286;22.688;2024-01-07T05:11:27;6.63;;;5.40;;
32038;SDS011;18549;42.286;22.688;2024-01-07T05:14:05;10.87;;;6.60;;
32038;SDS011;18549;42.286;22.688;2024-01-07T05:16:34;8.97;;;5.70;;
32038;SDS011;18549;42.286;22.688;2024-01-07T05:22:02;12.17;;;8.60;;
32038;SDS011;18549;42.286;22.688;2024-01-07T05:24:29;11.70;;;7.80;;
32038;SDS011;18549;42.286;22.688;2024-01-07T05:26:56;22.67;;;13.00;;
32038;SDS011;18549;42.286;22.688;2024-01-07T05:29:26;32.77;;;20.10;;
32038;SDS011;18549;42.286;22.688;2024-01-07T05:31:54;40.83;;;23.63;;
32038;SDS011;18549;42.286;22.688;2024-01-07T05:34:20;34.67;;;20.53;;
32038;SDS011;18549;42.286;22.688;2024-01-07T05:37:03;21.17;;;13.13;;
32038;SDS011;18549;42.286;22.688;2024-01-07T05:39:30;20.27;;;12.87;;
32038;SDS011;18549;42.286;22.688;2024-01-07T05:41:58;21.27;;;12.73;;
32038;SDS011;18549;42.286;22.688;2024-01-07T05:44:32;21.90;;;14.40;;
32038;SDS011;18549;42.286;22.688;2024-01-07T05:47:02;25.20;;;15.23;;
32038;SDS011;18549;42.286;22.688;2024-01-07T05:49:33;23.93;;;15.70;;
32038;SDS011;18549;42.286;22.688;2024-01-07T05:52:01;27.77;;;15.90;;
32038;SDS011;18549;42.286;22.688;2024-01-07T05:54:28;43.37;;;22.07;;
32038;SDS011;18549;42.286;22.688;2024-01-07T05:56:57;34.03;;;20.10;;
32038;SDS011;18549;42.286;22.688;2024-01-07T05:59:24;25.77;;;17.90;;
32038;SDS011;18549;42.286;22.688;2024-01-07T06:01:57;27.63;;;16.80;;
32038;SDS011;18549;42.286;22.688;2024-01-07T06:04:25;24.37;;;16.13;;
32038;SDS011;18549;42.286;22.688;2024-01-07T06:06:52;23.27;;;15.80;;
32038;SDS011;18549;42.286;22.688;2024-01-07T06:09:35;28.73;;;17.93;;
32038;SDS011;18549;42.286;22.688;2024-01-07T06:12:05;29.63;;;20.07;;
32038;SDS011;18549;42.286;22.688;2024-01-07T06:14:34;22.33;;;16.77;;
32038;SDS011;18549;42.286;22.688;2024-01-07T06:17:01;26.87;;;17.33;;
32038;SDS011;18549;42.286;22.688;2024-01-07T06:19:33;25.47;;;18.10;;
32038;SDS011;18549;42.286;22.688;2024-01-07T06:21:59;30.07;;;19.73;;
32038;SDS011;18549;42.286;22.688;2024-01-07T06:24:30;34.00;;;18.70;;
32038;SDS011;18549;42.286;22.688;2024-01-07T06:26:57;29.57;;;18.77;;
32038;SDS011;18549;42.286;22.688;2024-01-07T06:29:26;24.03;;;17.70;;
32038;SDS011;18549;42.286;22.688;2024-01-07T06:31:54;26.97;;;17.63;;
32038;SDS011;18549;42.286;22.688;2024-01-07T06:34:20;26.63;;;17.80;;
32038;SDS011;18549;42.286;22.688;2024-01-07T06:36:48;67.10;;;32.30;;
32038;SDS011;18549;42.286;22.688;2024-01-07T06:39:14;38.97;;;23.30;;
32038;SDS011;18549;42.286;22.688;2024-01-07T06:41:50;63.40;;;38.20;;
32038;SDS011;18549;42.286;22.688;2024-01-07T06:44:17;86.33;;;56.47;;
32038;SDS011;18549;42.286;22.688;2024-01-07T06:46:46;65.93;;;37.47;;
32038;SDS011;18549;42.286;22.688;2024-01-07T06:49:12;36.93;;;23.03;;
32038;SDS011;18549;42.286;22.688;2024-01-07T06:51:39;45.73;;;28.93;;
32038;SDS011;18549;42.286;22.688;2024-01-07T06:54:06;46.40;;;29.73;;
32038;SDS011;18549;42.286;22.688;2024-01-07T06:56:34;49.67;;;30.70;;
32038;SDS011;18549;42.286;22.688;2024-01-07T06:59:03;49.63;;;32.47;;
32038;SDS011;18549;42.286;22.688;2024-01-07T07:01:31;57.53;;;38.37;;
32038;SDS011;18549;42.286;22.688;2024-01-07T07:03:58;72.83;;;46.60;;
32038;SDS011;18549;42.286;22.688;2024-01-07T07:06:27;222.30;;;144.83;;
32038;SDS011;18549;42.286;22.688;2024-01-07T07:08:54;127.53;;;84.10;;
32038;SDS011;18549;42.286;22.688;2024-01-07T07:11:21;149.20;;;94.33;;
32038;SDS011;18549;42.286;22.688;2024-01-07T07:13:48;154.70;;;91.03;;
32038;SDS011;18549;42.286;22.688;2024-01-07T07:16:17;100.80;;;64.53;;
32038;SDS011;18549;42.286;22.688;2024-01-07T07:18:45;71.47;;;44.80;;
32038;SDS011;18549;42.286;22.688;2024-01-07T07:21:13;55.17;;;32.23;;
32038;SDS011;18549;42.286;22.688;2024-01-07T07:23:40;45.70;;;29.13;;
32038;SDS011;18549;42.286;22.688;2024-01-07T07:26:08;52.73;;;33.57;;
32038;SDS011;18549;42.286;22.688;2024-01-07T07:28:36;52.27;;;35.00;;
32038;SDS011;18549;42.286;22.688;2024-01-07T07:31:04;38.20;;;26.93;;
32038;SDS011;18549;42.286;22.688;2024-01-07T07:33:32;40.13;;;26.30;;
32038;SDS011;18549;42.286;22.688;2024-01-07T07:35:58;45.77;;;34.37;;
32038;SDS011;18549;42.286;22.688;2024-01-07T07:38:27;56.10;;;33.37;;
32038;SDS011;18549;42.286;22.688;2024-01-07T07:40:54;66.70;;;44.27;;
32038;SDS011;18549;42.286;22.688;2024-01-07T07:43:20;63.00;;;43.27;;
32038;SDS011;18549;42.286;22.688;2024-01-07T07:45:47;63.27;;;42.63;;
32038;SDS011;18549;42.286;22.688;2024-01-07T07:48:18;43.97;;;32.27;;
32038;SDS011;18549;42.286;22.688;2024-01-07T07:50:48;49.30;;;32.67;;
32038;SDS011;18549;42.286;22.688;2024-01-07T07:53:17;47.90;;;32.60;;
32038;SDS011;18549;42.286;22.688;2024-01-07T07:55:43;17.30;;;12.63;;
32038;SDS011;18549;42.286;22.688;2024-01-07T07:58:10;29.40;;;22.40;;
32038;SDS011;18549;42.286;22.688;2024-01-07T08:00:39;39.93;;;24.77;;
32038;SDS011;18549;42.286;22.688;2024-01-07T08:03:07;32.20;;;22.43;;
32038;SDS011;18549;42.286;22.688;2024-01-07T08:05:34;39.53;;;26.07;;
32038;SDS011;18549;42.286;22.688;2024-01-07T08:08:02;36.03;;;24.50;;
32038;SDS011;18549;42.286;22.688;2024-01-07T08:10:32;33.73;;;22.60;;
32038;SDS011;18549;42.286;22.688;2024-01-07T08:13:00;32.27;;;20.40;;
32038;SDS011;18549;42.286;22.688;2024-01-07T08:15:28;23.60;;;16.23;;
32038;SDS011;18549;42.286;22.688;2024-01-07T08:17:55;29.07;;;20.20;;
32038;SDS011;18549;42.286;22.688;2024-01-07T08:20:22;13.90;;;11.27;;
32038;SDS011;18549;42.286;22.688;2024-01-07T08:22:50;41.53;;;27.57;;
32038;SDS011;18549;42.286;22.688;2024-01-07T08:25:18;39.17;;;28.33;;
32038;SDS011;18549;42.286;22.688;2024-01-07T08:27:49;40.07;;;28.67;;
32038;SDS011;18549;42.286;22.688;2024-01-07T08:30:16;37.80;;;25.70;;
32038;SDS011;18549;42.286;22.688;2024-01-07T08:32:42;28.87;;;20.10;;
32038;SDS011;18549;42.286;22.688;2024-01-07T08:35:11;32.77;;;21.53;;
32038;SDS011;18549;42.286;22.688;2024-01-07T08:37:39;30.33;;;18.23;;
32038;SDS011;18549;42.286;22.688;2024-01-07T08:40:07;34.23;;;22.83;;
32038;SDS011;18549;42.286;22.688;2024-01-07T08:42:38;36.27;;;21.63;;
32038;SDS011;18549;42.286;22.688;2024-01-07T08:45:07;23.47;;;16.97;;
32038;SDS011;18549;42.286;22.688;2024-01-07T08:47:36;29.33;;;16.53;;
32038;SDS011;18549;42.286;22.688;2024-01-07T08:50:03;7.60;;;4.60;;
32038;SDS011;18549;42.286;22.688;2024-01-07T08:52:31;12.90;;;2.97;;
32038;SDS011;18549;42.286;22.688;2024-01-07T08:55:02;5.60;;;2.20;;
32038;SDS011;18549;42.286;22.688;2024-01-07T08:57:32;6.37;;;2.17;;
32038;SDS011;18549;42.286;22.688;2024-01-07T09:00:01;6.57;;;2.30;;
32038;SDS011;18549;42.286;22.688;2024-01-07T09:02:29;5.13;;;1.60;;
32038;SDS011;18549;42.286;22.688;2024-01-07T09:04:57;2.33;;;2.10;;
32038;SDS011;18549;42.286;22.688;2024-01-07T09:07:25;6.93;;;3.80;;
32038;SDS011;18549;42.286;22.688;2024-01-07T09:09:54;12.43;;;4.97;;
32038;SDS011;18549;42.286;22.688;2024-01-07T09:12:26;9.40;;;2.37;;
32038;SDS011;18549;42.286;22.688;2024-01-07T09:14:54;5.30;;;2.33;;
32038;SDS011;18549;42.286;22.688;2024-01-07T09:17:22;2.60;;;1.77;;
32038;SDS011;18549;42.286;22.688;2024-01-07T09:19:51;4.60;;;1.90;;
32038;SDS011;18549;42.286;22.688;2024-01-07T09:22:19;4.27;;;1.70;;
32038;SDS011;18549;42.286;22.688;2024-01-07T09:24:48;6.43;;;2.00;;
32038;SDS011;18549;42.286;22.688;2024-01-07T09:27:14;3.27;;;1.43;;
32038;SDS011;18549;42.286;22.688;2024-01-07T09:29:42;5.23;;;2.00;;
32038;SDS011;18549;42.286;22.688;2024-01-07T09:32:09;3.77;;;2.10;;
32038;SDS011;18549;42.286;22.688;2024-01-07T09:34:41;7.37;;;2.77;;
32038;SDS011;18549;42.286;22.688;2024-01-07T09:37:09;7.93;;;3.37;;
32038;SDS011;18549;42.286;22.688;2024-01-07T09:39:40;5.20;;;2.47;;
32038;SDS011;18549;42.286;22.688;2024-01-07T09:42:12;5.17;;;3.13;;
32038;SDS011;18549;42.286;22.688;2024-01-07T09:44:41;4.70;;;2.57;;
32038;SDS011;18549;42.286;22.688;2024-01-07T09:47:10;3.90;;;1.70;;
32038;SDS011;18549;42.286;22.688;2024-01-07T09:49:44;4.17;;;1.33;;
32038;SDS011;18549;42.286;22.688;2024-01-07T09:52:11;2.73;;;1.63;;
32038;SDS011;18549;42.286;22.688;2024-01-07T09:54:38;5.97;;;1.90;;
32038;SDS011;18549;42.286;22.688;2024-01-07T09:57:09;8.87;;;3.20;;
32038;SDS011;18549;42.286;22.688;2024-01-07T09:59:38;5.07;;;2.70;;
32038;SDS011;18549;42.286;22.688;2024-01-07T10:02:05;3.63;;;2.03;;
32038;SDS011;18549;42.286;22.688;2024-01-07T10:04:35;2.80;;;1.30;;
32038;SDS011;18549;42.286;22.688;2024-01-07T10:07:06;4.70;;;1.73;;
32038;SDS011;18549;42.286;22.688;2024-01-07T10:09:34;3.40;;;1.20;;
32038;SDS011;18549;42.286;22.688;2024-01-07T10:12:00;3.53;;;1.33;;
32038;SDS011;18549;42.286;22.688;2024-01-07T10:14:29;7.63;;;1.70;;
32038;SDS011;18549;42.286;22.688;2024-01-07T10:16:56;8.30;;;3.40;;
32038;SDS011;18549;42.286;22.688;2024-01-07T10:19:25;5.97;;;2.60;;
32038;SDS011;18549;42.286;22.688;2024-01-07T10:22:00;3.30;;;1.50;;
32038;SDS011;18549;42.286;22.688;2024-01-07T10:24:45;2.50;;;1.40;;
32038;SDS011;18549;42.286;22.688;2024-01-07T10:27:16;2.70;;;1.50;;
32038;SDS011;18549;42.286;22.688;2024-01-07T10:29:46;5.17;;;2.30;;
32038;SDS011;18549;42.286;22.688;2024-01-07T10:32:14;2.83;;;1.50;;
32038;SDS011;18549;42.286;22.688;2024-01-07T10:34:41;6.03;;;2.70;;
32038;SDS011;18549;42.286;22.688;2024-01-07T10:37:14;1.93;;;1.47;;
32038;SDS011;18549;42.286;22.688;2024-01-07T10:39:49;4.83;;;1.10;;
32038;SDS011;18549;42.286;22.688;2024-01-07T10:42:16;2.80;;;1.30;;
32038;SDS011;18549;42.286;22.688;2024-01-07T10:44:44;1.93;;;1.20;;
32038;SDS011;18549;42.286;22.688;2024-01-07T10:47:12;5.83;;;1.40;;
32038;SDS011;18549;42.286;22.688;2024-01-07T10:49:43;5.67;;;1.27;;
32038;SDS011;18549;42.286;22.688;2024-01-07T10:52:18;2.67;;;1.50;;
32038;SDS011;18549;42.286;22.688;2024-01-07T10:54:51;3.23;;;1.80;;
32038;SDS011;18549;42.286;22.688;2024-01-07T10:57:21;3.03;;;1.47;;
32038;SDS011;18549;42.286;22.688;2024-01-07T10:59:54;1.27;;;0.80;;
32038;SDS011;18549;42.286;22.688;2024-01-07T11:02:24;1.90;;;0.87;;
32038;SDS011;18549;42.286;22.688;2024-01-07T11:04:56;3.30;;;1.43;;
32038;SDS011;18549;42.286;22.688;2024-01-07T11:07:35;4.20;;;1.37;;
32038;SDS011;18549;42.286;22.688;2024-01-07T11:10:10;5.73;;;1.60;;
32038;SDS011;18549;42.286;22.688;2024-01-07T11:12:44;1.80;;;1.20;;
32038;SDS011;18549;42.286;22.688;2024-01-07T11:18:26;7.23;;;1.50;;
32038;SDS011;18549;42.286;22.688;2024-01-07T11:21:04;4.03;;;1.23;;
32038;SDS011;18549;42.286;22.688;2024-01-07T11:23:31;2.63;;;1.17;;
32038;SDS011;18549;42.286;22.688;2024-01-07T11:26:02;9.30;;;1.37;;
32038;SDS011;18549;42.286;22.688;2024-01-07T11:28:45;2.67;;;1.40;;
32038;SDS011;18549;42.286;22.688;2024-01-07T11:31:14;2.30;;;1.80;;
32038;SDS011;18549;42.286;22.688;2024-01-07T11:33:44;3.27;;;1.60;;
32038;SDS011;18549;42.286;22.688;2024-01-07T11:36:14;2.43;;;1.07;;
32038;SDS011;18549;42.286;22.688;2024-01-07T11:38:43;1.73;;;1.10;;
32038;SDS011;18549;42.286;22.688;2024-01-07T11:41:13;2.30;;;1.07;;
32038;SDS011;18549;42.286;22.688;2024-01-07T11:43:53;1.83;;;1.00;;
32038;SDS011;18549;42.286;22.688;2024-01-07T11:46:22;3.63;;;2.23;;
32038;SDS011;18549;42.286;22.688;2024-01-07T11:48:50;3.23;;;1.60;;
32038;SDS011;18549;42.286;22.688;2024-01-07T11:51:23;4.07;;;1.23;;
32038;SDS011;18549;42.286;22.688;2024-01-07T11:53:50;4.23;;;1.23;;
32038;SDS011;18549;42.286;22.688;2024-01-07T11:56:20;2.33;;;1.40;;
32038;SDS011;18549;42.286;22.688;2024-01-07T11:58:48;7.13;;;1.50;;
32038;SDS011;18549;42.286;22.688;2024-01-07T12:01:16;4.50;;;2.00;;
32038;SDS011;18549;42.286;22.688;2024-01-07T12:03:45;2.37;;;1.20;;
32038;SDS011;18549;42.286;22.688;2024-01-07T12:06:12;2.93;;;1.10;;
32038;SDS011;18549;42.286;22.688;2024-01-07T12:08:40;3.83;;;1.90;;
32038;SDS011;18549;42.286;22.688;2024-01-07T12:11:08;5.33;;;2.60;;
32038;SDS011;18549;42.286;22.688;2024-01-07T12:13:38;6.77;;;1.00;;
32038;SDS011;18549;42.286;22.688;2024-01-07T12:16:05;2.10;;;0.90;;
32038;SDS011;18549;42.286;22.688;2024-01-07T12:18:36;3.17;;;1.23;;
32038;SDS011;18549;42.286;22.688;2024-01-07T12:21:04;6.63;;;4.33;;
32038;SDS011;18549;42.286;22.688;2024-01-07T12:23:33;6.30;;;2.70;;
32038;SDS011;18549;42.286;22.688;2024-01-07T12:26:07;13.10;;;3.00;;
32038;SDS011;18549;42.286;22.688;2024-01-07T12:28:35;1.90;;;1.63;;
32038;SDS011;18549;42.286;22.688;2024-01-07T12:31:04;9.87;;;2.87;;
32038;SDS011;18549;42.286;22.688;2024-01-07T12:33:36;4.13;;;2.70;;
32038;SDS011;18549;42.286;22.688;2024-01-07T12:36:15;3.50;;;1.90;;
32038;SDS011;18549;42.286;22.688;2024-01-07T12:38:43;3.43;;;2.00;;
32038;SDS011;18549;42.286;22.688;2024-01-07T12:41:11;9.30;;;5.03;;
32038;SDS011;18549;42.286;22.688;2024-01-07T12:43:39;8.40;;;3.90;;
32038;SDS011;18549;42.286;22.688;2024-01-07T12:46:10;8.67;;;4.00;;
32038;SDS011;18549;42.286;22.688;2024-01-07T12:48:38;6.57;;;4.50;;
32038;SDS011;18549;42.286;22.688;2024-01-07T12:51:05;9.17;;;5.27;;
32038;SDS011;18549;42.286;22.688;2024-01-07T12:53:34;9.10;;;4.57;;
32038;SDS011;18549;42.286;22.688;2024-01-07T12:56:01;6.30;;;3.10;;
32038;SDS011;18549;42.286;22.688;2024-01-07T12:58:29;6.27;;;3.17;;
32038;SDS011;18549;42.286;22.688;2024-01-07T13:00:56;10.03;;;3.87;;
32038;SDS011;18549;42.286;22.688;2024-01-07T13:03:24;12.77;;;6.83;;
32038;SDS011;18549;42.286;22.688;2024-01-07T13:05:52;10.43;;;3.10;;
32038;SDS011;18549;42.286;22.688;2024-01-07T13:08:20;4.67;;;1.57;;
32038;SDS011;18549;42.286;22.688;2024-01-07T13:10:49;4.23;;;2.77;;
32038;SDS011;18549;42.286;22.688;2024-01-07T13:13:17;3.03;;;2.00;;
32038;SDS011;18549;42.286;22.688;2024-01-07T13:15:44;2.13;;;1.87;;
32038;SDS011;18549;42.286;22.688;2024-01-07T13:18:12;2.77;;;1.77;;
32038;SDS011;18549;42.286;22.688;2024-01-07T13:20:42;2.03;;;1.40;;
32038;SDS011;18549;42.286;22.688;2024-01-07T13:23:11;3.70;;;1.70;;
32038;SDS011;18549;42.286;22.688;2024-01-07T13:25:39;11.17;;;6.50;;
32038;SDS011;18549;42.286;22.688;2024-01-07T13:28:06;15.30;;;7.40;;
32038;SDS011;18549;42.286;22.688;2024-01-07T13:30:37;69.83;;;42.13;;
32038;SDS011;18549;42.286;22.688;2024-01-07T13:33:06;37.50;;;19.83;;
32038;SDS011;18549;42.286;22.688;2024-01-07T13:35:33;7.67;;;4.50;;
32038;SDS011;18549;42.286;22.688;2024-01-07T13:38:04;15.77;;;7.97;;
32038;SDS011;18549;42.286;22.688;2024-01-07T13:40:34;11.13;;;4.30;;
32038;SDS011;18549;42.286;22.688;2024-01-07T13:43:01;11.03;;;5.67;;
32038;SDS011;18549;42.286;22.688;2024-01-07T13:45:29;13.87;;;7.17;;
32038;SDS011;18549;42.286;22.688;2024-01-07T13:47:56;9.07;;;4.87;;
32038;SDS011;18549;42.286;22.688;2024-01-07T13:50:24;14.10;;;6.97;;
32038;SDS011;18549;42.286;22.688;2024-01-07T13:52:50;14.30;;;9.30;;
32038;SDS011;18549;42.286;22.688;2024-01-07T13:55:18;11.87;;;6.07;;
32038;SDS011;18549;42.286;22.688;2024-01-07T13:57:47;7.03;;;4.70;;
32038;SDS011;18549;42.286;22.688;2024-01-07T14:00:14;8.37;;;4.90;;
32038;SDS011;18549;42.286;22.688;2024-01-07T14:02:45;11.47;;;5.90;;
32038;SDS011;18549;42.286;22.688;2024-01-07T14:05:13;7.43;;;5.20;;
32038;SDS011;18549;42.286;22.688;2024-01-07T14:07:41;9.53;;;5.57;;
32038;SDS011;18549;42.286;22.688;2024-01-07T14:10:08;14.47;;;7.77;;
32038;SDS011;18549;42.286;22.688;2024-01-07T14:12:37;9.83;;;5.60;;
32038;SDS011;18549;42.286;22.688;2024-01-07T14:15:05;10.97;;;5.90;;
32038;SDS011;18549;42.286;22.688;2024-01-07T14:17:34;14.37;;;5.00;;
32038;SDS011;18549;42.286;22.688;2024-01-07T14:20:06;13.10;;;5.50;;
32038;SDS011;18549;42.286;22.688;2024-01-07T14:22:34;20.53;;;12.57;;
32038;SDS011;18549;42.286;22.688;2024-01-07T14:25:03;26.47;;;16.13;;
32038;SDS011;18549;42.286;22.688;2024-01-07T14:27:32;24.43;;;12.50;;
32038;SDS011;18549;42.286;22.688;2024-01-07T14:30:02;24.07;;;15.20;;
32038;SDS011;18549;42.286;22.688;2024-01-07T14:32:31;26.67;;;14.83;;
32038;SDS011;18549;42.286;22.688;2024-01-07T14:34:58;24.47;;;15.40;;
32038;SDS011;18549;42.286;22.688;2024-01-07T14:37:25;37.83;;;21.47;;